Terminal Aerodrome Forecast
Issued by NWS

Home | Current Version | Previous Version | Text Only | Print | Product List | Glossary On
Versions: 1 2 3 4 5 6 7 8 9 10 11 12 13 14 15 16 17 18 19 20 21 22 23 24 25
000
FTUS45 KABQ 252320
TAFGUP
TAF
KGUP 252320Z 2600/2624 22015G25KT P6SM FEW100 SCT200
     FM260200 23008KT P6SM SCT120 SCT250
     FM260600 VRB06KT P6SM SCT150 BKN250
     FM261700 22015G22KT P6SM FEW100 SCT250
     FM262100 23018G28KT P6SM FEW100=

USA.gov is the U.S. government's official web portal to all federal, state and local government web resources and services.